createdAt,value
2018-07-21T00:00:36.294Z,0.00
2018-07-21T00:02:29.600Z,0.00
2018-07-21T00:03:29.521Z,0.00
2018-07-21T00:05:22.808Z,0.00
2018-07-21T00:06:22.750Z,0.00
2018-07-21T00:08:16.046Z,0.00
2018-07-21T00:09:15.970Z,0.00
2018-07-21T00:11:09.285Z,0.00
2018-07-21T00:12:09.196Z,0.00
2018-07-21T00:14:02.532Z,0.00
2018-07-21T00:15:02.423Z,0.00
2018-07-21T00:16:55.729Z,0.00
2018-07-21T00:17:55.651Z,0.00
2018-07-21T00:19:48.939Z,0.00
2018-07-21T00:20:48.881Z,0.00
2018-07-21T00:22:42.184Z,0.00
2018-07-21T00:23:42.107Z,0.00
2018-07-21T00:25:35.392Z,0.00
2018-07-21T00:26:35.334Z,0.00
2018-07-21T00:28:28.629Z,0.00
2018-07-21T00:29:28.552Z,0.00
2018-07-21T00:31:21.868Z,0.00
2018-07-21T00:32:21.780Z,0.00
2018-07-21T00:34:15.062Z,0.00
2018-07-21T00:35:15.005Z,0.00
2018-07-21T00:37:08.370Z,0.00
2018-07-21T00:38:08.294Z,0.00
2018-07-21T00:40:01.580Z,0.00
2018-07-21T00:41:01.520Z,0.00
2018-07-21T00:42:54.827Z,0.00
2018-07-21T00:43:54.747Z,0.00
2018-07-21T00:45:48.032Z,0.00
2018-07-21T00:46:47.975Z,0.00
2018-07-21T00:48:41.280Z,0.00
2018-07-21T00:49:41.204Z,0.00
2018-07-21T00:51:34.522Z,0.00
2018-07-21T00:52:34.430Z,0.00
2018-07-21T00:54:27.716Z,0.00
2018-07-21T00:55:27.658Z,0.00
2018-07-21T00:57:21.016Z,0.00
2018-07-21T00:58:20.886Z,0.00
2018-07-21T01:00:14.175Z,0.00
2018-07-21T01:01:14.116Z,0.00
2018-07-21T01:03:07.423Z,0.00
2018-07-21T01:04:07.344Z,0.00
2018-07-21T01:06:00.628Z,0.00
2018-07-21T01:07:00.570Z,0.00
2018-07-21T01:08:53.866Z,0.00
2018-07-21T01:09:53.792Z,0.00
2018-07-21T01:11:47.108Z,0.00
2018-07-21T01:12:47.018Z,0.00
2018-07-21T01:14:40.349Z,0.00
2018-07-21T01:15:40.291Z,0.00
2018-07-21T01:17:33.593Z,0.00
2018-07-21T01:18:33.518Z,0.00
2018-07-21T01:20:26.803Z,0.00
2018-07-21T01:21:26.743Z,0.00
2018-07-21T01:23:20.047Z,0.00
2018-07-21T01:24:19.970Z,0.00
2018-07-21T01:26:13.256Z,0.00
2018-07-21T01:27:13.214Z,0.00
2018-07-21T01:29:06.511Z,0.00
2018-07-21T01:30:06.430Z,0.00
2018-07-21T01:31:59.742Z,0.00
2018-07-21T01:32:59.651Z,0.00
2018-07-21T01:34:52.937Z,0.00
2018-07-21T01:35:52.878Z,0.00
2018-07-21T01:37:46.182Z,0.00
2018-07-21T01:38:46.105Z,0.00
2018-07-21T01:40:39.389Z,0.00
2018-07-21T01:41:39.330Z,0.00
2018-07-21T01:43:32.636Z,0.00
2018-07-21T01:44:32.555Z,0.00
2018-07-21T01:46:25.839Z,0.00
2018-07-21T01:47:25.781Z,0.00
2018-07-21T01:49:19.085Z,0.00
2018-07-21T01:50:19.016Z,0.00
2018-07-21T01:52:12.385Z,0.00
2018-07-21T01:53:12.293Z,0.00
2018-07-21T01:55:05.576Z,0.00
2018-07-21T01:56:05.517Z,0.00
2018-07-21T01:57:58.814Z,0.00
2018-07-21T01:58:58.735Z,0.00
2018-07-21T02:00:52.019Z,0.00
2018-07-21T02:01:51.964Z,0.00
2018-07-21T02:03:45.264Z,0.00
2018-07-21T02:04:45.186Z,0.00
2018-07-21T02:06:39.072Z,0.00
2018-07-21T02:07:38.422Z,0.00
2018-07-21T02:09:31.733Z,0.00
2018-07-21T02:10:31.657Z,0.00
2018-07-21T02:12:24.973Z,0.00
2018-07-21T02:13:24.881Z,0.00
2018-07-21T02:15:18.166Z,0.00
2018-07-21T02:16:18.107Z,0.00
2018-07-21T02:18:11.405Z,0.00
2018-07-21T02:19:11.325Z,0.00
2018-07-21T02:21:04.609Z,0.00
2018-07-21T02:22:04.550Z,0.00
2018-07-21T02:23:57.859Z,0.00
2018-07-21T02:24:57.775Z,0.00
2018-07-21T02:26:51.058Z,0.00
2018-07-21T02:27:51.000Z,0.00
2018-07-21T02:29:44.373Z,0.00
2018-07-21T02:30:44.293Z,0.00
2018-07-21T02:32:37.610Z,0.00
2018-07-21T02:33:37.516Z,0.00
2018-07-21T02:35:30.804Z,0.00
2018-07-21T02:36:30.744Z,0.00
2018-07-21T02:38:24.053Z,0.00
2018-07-21T02:39:23.971Z,0.00
2018-07-21T02:41:17.254Z,0.00
2018-07-21T02:42:17.202Z,0.00
2018-07-21T02:44:10.500Z,0.00
2018-07-21T02:45:10.422Z,0.00
2018-07-21T02:47:03.717Z,0.00
2018-07-21T02:48:03.644Z,0.00
2018-07-21T02:49:56.953Z,0.00
2018-07-21T02:50:56.875Z,0.00
2018-07-21T02:52:50.193Z,0.00
2018-07-21T02:53:50.102Z,0.00
2018-07-21T02:55:43.387Z,0.00
2018-07-21T02:56:43.328Z,0.00
2018-07-21T02:58:36.633Z,0.00
2018-07-21T02:59:36.557Z,0.00
2018-07-21T03:01:29.840Z,0.00
2018-07-21T03:02:29.781Z,0.00
2018-07-21T03:04:23.084Z,4.00
2018-07-21T03:05:23.009Z,4.00
2018-07-21T03:07:16.351Z,0.00
2018-07-21T03:08:16.293Z,0.00
2018-07-21T03:10:09.624Z,4.00
2018-07-21T03:11:09.516Z,8.00
2018-07-21T03:13:02.836Z,4.00
2018-07-21T03:14:02.744Z,8.00
2018-07-21T03:15:56.025Z,4.00
2018-07-21T03:16:55.966Z,8.00
2018-07-21T03:18:49.270Z,4.00
2018-07-21T03:19:49.192Z,8.00
2018-07-21T03:21:42.477Z,12.00
2018-07-21T03:22:42.420Z,12.00
2018-07-21T03:24:35.724Z,12.00
2018-07-21T03:25:35.643Z,12.00
2018-07-21T03:27:28.927Z,16.00
2018-07-21T03:28:28.866Z,20.00
2018-07-21T03:30:22.170Z,24.00
2018-07-21T03:31:22.093Z,24.00
2018-07-21T03:33:15.498Z,24.00
2018-07-21T03:34:15.317Z,28.00
2018-07-21T03:36:08.621Z,28.00
2018-07-21T03:37:08.543Z,32.00
2018-07-21T03:39:01.951Z,36.00
2018-07-21T03:40:01.768Z,40.00
2018-07-21T03:41:55.052Z,44.00
2018-07-21T03:42:54.992Z,48.00
2018-07-21T03:44:48.369Z,48.00
2018-07-21T03:45:48.293Z,48.00
2018-07-21T03:47:41.576Z,48.00
2018-07-21T03:48:41.516Z,48.00
2018-07-21T03:50:34.820Z,52.00
2018-07-21T03:51:34.741Z,56.00
2018-07-21T03:53:28.044Z,64.00
2018-07-21T03:54:27.967Z,68.00
2018-07-21T03:56:21.269Z,76.00
2018-07-21T03:57:21.192Z,84.00
2018-07-21T03:59:14.495Z,88.00
2018-07-21T04:00:14.417Z,92.00
2018-07-21T04:02:07.701Z,100.00
2018-07-21T04:03:07.642Z,104.00
2018-07-21T04:05:00.944Z,112.00
2018-07-21T04:06:00.867Z,120.00
2018-07-21T04:07:54.145Z,128.00
2018-07-21T04:08:54.092Z,136.00
2018-07-21T04:10:47.888Z,152.00
2018-07-21T04:11:47.307Z,156.00
2018-07-21T04:13:40.713Z,168.00
2018-07-21T04:14:40.530Z,176.00
2018-07-21T04:16:33.891Z,180.00
2018-07-21T04:17:33.756Z,184.00
2018-07-21T04:19:27.055Z,196.00
2018-07-21T04:20:26.979Z,200.00
2018-07-21T04:22:20.365Z,200.00
2018-07-21T04:23:20.291Z,200.00
2018-07-21T04:25:13.593Z,196.00
2018-07-21T04:26:13.515Z,192.00
2018-07-21T04:28:06.900Z,188.00
2018-07-21T04:29:06.741Z,180.00
2018-07-21T04:31:00.043Z,168.00
2018-07-21T04:31:59.989Z,164.00
2018-07-21T04:33:53.248Z,160.00
2018-07-21T04:34:53.189Z,152.00
2018-07-21T04:36:46.490Z,152.00
2018-07-21T04:37:46.413Z,148.00
2018-07-21T04:39:39.716Z,148.00
2018-07-21T04:40:39.636Z,148.00
2018-07-21T04:42:32.919Z,148.00
2018-07-21T04:43:32.864Z,156.00
2018-07-21T04:45:26.166Z,160.00
2018-07-21T04:46:26.086Z,164.00
2018-07-21T04:48:19.369Z,180.00
2018-07-21T04:49:19.309Z,184.00
2018-07-21T04:51:12.612Z,196.00
2018-07-21T04:52:12.533Z,204.00
2018-07-21T04:54:05.816Z,224.00
2018-07-21T04:55:05.760Z,240.00
2018-07-21T04:56:59.162Z,264.00
2018-07-21T04:57:58.978Z,284.00
2018-07-21T04:59:52.368Z,332.00
2018-07-21T05:00:52.330Z,368.00
2018-07-21T05:02:45.571Z,420.00
2018-07-21T05:03:45.512Z,452.00
2018-07-21T05:05:38.814Z,520.00
2018-07-21T05:06:38.735Z,564.00
2018-07-21T05:08:32.011Z,620.00
2018-07-21T05:09:31.951Z,632.00
2018-07-21T05:11:25.255Z,760.00
2018-07-21T05:12:25.180Z,816.00
2018-07-21T05:14:18.451Z,880.00
2018-07-21T05:15:18.390Z,900.00
2018-07-21T05:17:11.692Z,920.00
2018-07-21T05:18:11.614Z,920.00
2018-07-21T05:20:04.945Z,904.00
2018-07-21T05:21:04.842Z,896.00
2018-07-21T05:22:58.123Z,944.00
2018-07-21T05:23:58.064Z,1024.00
2018-07-21T05:25:51.365Z,1172.00
2018-07-21T05:26:51.289Z,1232.00
2018-07-21T05:28:44.563Z,1328.00
2018-07-21T05:29:44.504Z,1376.00
2018-07-21T05:31:37.812Z,1452.00
2018-07-21T05:32:37.732Z,1496.00
2018-07-21T05:34:31.016Z,1588.00
2018-07-21T05:35:30.956Z,1636.00
2018-07-21T05:37:24.369Z,1732.00
2018-07-21T05:38:24.293Z,1792.00
2018-07-21T05:40:17.597Z,1872.00
2018-07-21T05:41:17.517Z,1884.00
2018-07-21T05:43:10.802Z,1864.00
2018-07-21T05:44:10.744Z,1852.00
2018-07-21T05:46:04.048Z,1852.00
2018-07-21T05:47:03.973Z,1852.00
2018-07-21T05:48:57.257Z,1832.00
2018-07-21T05:49:57.199Z,1816.00
2018-07-21T05:51:50.503Z,1792.00
2018-07-21T05:52:50.425Z,1796.00
2018-07-21T05:54:43.831Z,1820.00
2018-07-21T05:55:43.656Z,1856.00
2018-07-21T05:57:37.059Z,1944.00
2018-07-21T05:58:36.881Z,1992.00
2018-07-21T06:00:30.185Z,2024.00
2018-07-21T06:01:30.111Z,2020.00
2018-07-21T06:03:23.384Z,1988.00
2018-07-21T06:04:23.329Z,1968.00
2018-07-21T06:06:16.631Z,1968.00
2018-07-21T06:07:16.555Z,2000.00
2018-07-21T06:09:09.841Z,2100.00
2018-07-21T06:10:09.784Z,2156.00
2018-07-21T06:12:03.089Z,2240.00
2018-07-21T06:13:03.012Z,2296.00
2018-07-21T06:14:56.351Z,2428.00
2018-07-21T06:15:56.293Z,2492.00
2018-07-21T06:17:49.590Z,2588.00
2018-07-21T06:18:49.512Z,2612.00
2018-07-21T06:20:42.808Z,2636.00
2018-07-21T06:21:42.732Z,2676.00
2018-07-21T06:23:36.007Z,2864.00
2018-07-21T06:24:35.951Z,3000.00
2018-07-21T06:26:29.358Z,3180.00
2018-07-21T06:27:29.175Z,3240.00
2018-07-21T06:29:22.448Z,3272.00
2018-07-21T06:30:22.391Z,3304.00
2018-07-21T06:32:16.546Z,3248.00
2018-07-21T06:33:16.471Z,3248.00
2018-07-21T06:35:09.758Z,3296.00
2018-07-21T06:36:09.702Z,3480.00
2018-07-21T06:38:03.015Z,3792.00
2018-07-21T06:39:02.935Z,4000.00
2018-07-21T06:40:56.243Z,4184.00
2018-07-21T06:41:56.169Z,4156.00
2018-07-21T06:43:49.473Z,4516.00
2018-07-21T06:44:49.400Z,4496.00
2018-07-21T06:46:42.699Z,4152.00
2018-07-21T06:47:42.625Z,4528.00
2018-07-21T06:49:35.976Z,4876.00
2018-07-21T06:50:35.862Z,6056.00
2018-07-21T06:52:29.168Z,7204.00
2018-07-21T06:53:29.096Z,7376.00
2018-07-21T06:55:22.389Z,7892.00
2018-07-21T06:56:22.335Z,7652.00
2018-07-21T06:58:15.643Z,6792.00
2018-07-21T06:59:15.657Z,7208.00
2018-07-21T07:01:08.887Z,5952.00
2018-07-21T07:02:08.817Z,5228.00
2018-07-21T07:04:02.114Z,5164.00
2018-07-21T07:05:02.063Z,5060.00
2018-07-21T07:06:55.378Z,3864.00
2018-07-21T07:07:55.307Z,3940.00
2018-07-21T07:09:49.601Z,4804.00
2018-07-21T07:10:49.549Z,5772.00
2018-07-21T07:12:42.866Z,3912.00
2018-07-21T07:13:42.792Z,4064.00
2018-07-21T07:15:36.088Z,4668.00
2018-07-21T07:16:36.038Z,4148.00
2018-07-21T07:18:29.340Z,4868.00
2018-07-21T07:19:29.268Z,4328.00
2018-07-21T07:21:23.579Z,4052.00
2018-07-21T07:22:23.508Z,4320.00
2018-07-21T07:24:16.804Z,6108.00
2018-07-21T07:25:16.750Z,6452.00
2018-07-21T07:27:10.060Z,7936.00
2018-07-21T07:28:09.996Z,7984.00
2018-07-21T07:30:03.292Z,8464.00
2018-07-21T07:31:03.239Z,5936.00
2018-07-21T07:32:56.557Z,4376.00
2018-07-21T07:33:56.485Z,4148.00
2018-07-21T07:35:49.899Z,3968.00
2018-07-21T07:36:49.728Z,4000.00
2018-07-21T07:38:44.015Z,4232.00
2018-07-21T07:39:43.959Z,3740.00
2018-07-21T07:41:37.271Z,5404.00
2018-07-21T07:42:37.198Z,4464.00
2018-07-21T07:44:30.492Z,4644.00
2018-07-21T07:45:30.438Z,5740.00
2018-07-21T07:47:23.850Z,5016.00
2018-07-21T07:48:23.678Z,4428.00
2018-07-21T07:50:17.070Z,4196.00
2018-07-21T07:51:16.923Z,4368.00
2018-07-21T07:53:10.230Z,4596.00
2018-07-21T07:54:10.161Z,4652.00
2018-07-21T07:56:03.452Z,4856.00
2018-07-21T07:57:03.387Z,4684.00
2018-07-21T07:58:56.690Z,4824.00
2018-07-21T07:59:56.621Z,5036.00
2018-07-21T08:01:49.929Z,5172.00
2018-07-21T08:02:49.856Z,6104.00
2018-07-21T08:04:43.157Z,6692.00
2018-07-21T08:05:43.093Z,6956.00
2018-07-21T08:07:36.406Z,7672.00
2018-07-21T08:08:36.334Z,7912.00
2018-07-21T08:10:29.626Z,7596.00
2018-07-21T08:11:29.572Z,8008.00
2018-07-21T08:13:22.886Z,6616.00
2018-07-21T08:14:22.814Z,6508.00
2018-07-21T08:16:16.110Z,6992.00
2018-07-21T08:17:16.057Z,6576.00
2018-07-21T08:19:09.368Z,5976.00
2018-07-21T08:20:09.293Z,5916.00
2018-07-21T08:22:02.607Z,5988.00
2018-07-21T08:23:02.534Z,5992.00
2018-07-21T08:24:55.829Z,6324.00
2018-07-21T08:25:55.775Z,6696.00
2018-07-21T08:27:49.086Z,7632.00
2018-07-21T08:28:49.013Z,7848.00
2018-07-21T08:30:42.352Z,7460.00
2018-07-21T08:31:42.300Z,7184.00
2018-07-21T08:33:35.602Z,6796.00
2018-07-21T08:34:35.581Z,6800.00
2018-07-21T08:36:28.826Z,6756.00
2018-07-21T08:37:28.769Z,6508.00
2018-07-21T08:39:22.082Z,6252.00
2018-07-21T08:40:22.011Z,6284.00
2018-07-21T08:42:15.325Z,6216.00
2018-07-21T08:43:15.250Z,6220.00
2018-07-21T08:45:08.552Z,6344.00
2018-07-21T08:46:08.491Z,6628.00
2018-07-21T08:48:01.797Z,8204.00
2018-07-21T08:49:01.723Z,8152.00
2018-07-21T08:50:55.016Z,7364.00
2018-07-21T08:51:54.963Z,7052.00
2018-07-21T08:53:48.379Z,6752.00
2018-07-21T08:54:48.314Z,6672.00
2018-07-21T08:56:41.693Z,6704.00
2018-07-21T08:57:41.539Z,6668.00
2018-07-21T08:59:34.853Z,6608.00
2018-07-21T09:00:34.783Z,6616.00
2018-07-21T09:02:28.095Z,6944.00
2018-07-21T09:03:28.022Z,7036.00
2018-07-21T09:05:21.314Z,7104.00
2018-07-21T09:06:21.262Z,6940.00
2018-07-21T09:08:14.679Z,7240.00
2018-07-21T09:09:14.496Z,6944.00
2018-07-21T09:11:07.889Z,6576.00
2018-07-21T09:12:07.735Z,6488.00
2018-07-21T09:14:01.148Z,6424.00
2018-07-21T09:15:00.975Z,6348.00
2018-07-21T09:16:54.355Z,6304.00
2018-07-21T09:17:54.300Z,6652.00
2018-07-21T09:19:47.650Z,7092.00
2018-07-21T09:20:47.578Z,7408.00
2018-07-21T09:22:41.011Z,6960.00
2018-07-21T09:23:40.820Z,7132.00
2018-07-21T09:25:34.116Z,8136.00
2018-07-21T09:26:34.060Z,9228.00
2018-07-21T09:28:27.472Z,8792.00
2018-07-21T09:29:27.295Z,8008.00
2018-07-21T09:31:20.593Z,8400.00
2018-07-21T09:32:20.537Z,7740.00
2018-07-21T09:34:13.899Z,7828.00
2018-07-21T09:35:13.782Z,8112.00
2018-07-21T09:37:07.077Z,9292.00
2018-07-21T09:38:07.025Z,8976.00
2018-07-21T09:40:00.426Z,9096.00
2018-07-21T09:41:00.302Z,8840.00
2018-07-21T09:42:53.620Z,8052.00
2018-07-21T09:43:53.548Z,7496.00
2018-07-21T09:45:46.845Z,6688.00
2018-07-21T09:46:46.792Z,6572.00
2018-07-21T09:48:40.111Z,6704.00
2018-07-21T09:49:40.040Z,7500.00
2018-07-21T09:51:33.340Z,8104.00
2018-07-21T09:52:33.284Z,7636.00
2018-07-21T09:54:26.600Z,6896.00
2018-07-21T09:55:26.531Z,7020.00
2018-07-21T09:57:19.827Z,6800.00
2018-07-21T09:58:19.780Z,6860.00
2018-07-21T10:00:13.092Z,6708.00
2018-07-21T10:01:13.025Z,6672.00
2018-07-21T10:03:06.374Z,8920.00
2018-07-21T10:04:06.305Z,9924.00
2018-07-21T10:05:59.699Z,8476.00
2018-07-21T10:06:59.550Z,8996.00
2018-07-21T10:08:52.891Z,9644.00
2018-07-21T10:09:52.793Z,9144.00
2018-07-21T10:11:46.093Z,8888.00
2018-07-21T10:12:46.046Z,8628.00
2018-07-21T10:14:39.364Z,8544.00
2018-07-21T10:15:39.291Z,8756.00
2018-07-21T10:17:32.592Z,8620.00
2018-07-21T10:18:32.540Z,8424.00
2018-07-21T10:20:25.861Z,8844.00
2018-07-21T10:21:25.791Z,9424.00
2018-07-21T10:23:19.111Z,9912.00
2018-07-21T10:24:19.044Z,9796.00
2018-07-21T10:26:12.441Z,8632.00
2018-07-21T10:27:12.311Z,8112.00
2018-07-21T10:29:05.728Z,9012.00
2018-07-21T10:30:05.573Z,8892.00
2018-07-21T10:31:58.867Z,9520.00
2018-07-21T10:32:58.815Z,9872.00
2018-07-21T10:34:52.234Z,9732.00
2018-07-21T10:35:52.103Z,9756.00
2018-07-21T10:37:45.502Z,9336.00
2018-07-21T10:38:45.452Z,9184.00
2018-07-21T10:40:38.774Z,8628.00
2018-07-21T10:41:38.707Z,9244.00
2018-07-21T10:43:32.029Z,9460.00
2018-07-21T10:44:31.985Z,9784.00
2018-07-21T10:46:25.860Z,9292.00
2018-07-21T10:47:25.447Z,8884.00
2018-07-21T10:49:18.767Z,7092.00
2018-07-21T10:50:18.700Z,6760.00
2018-07-21T10:52:12.002Z,6896.00
2018-07-21T10:53:11.954Z,7476.00
2018-07-21T10:55:05.513Z,7012.00
2018-07-21T10:56:05.444Z,6976.00
2018-07-21T10:57:58.738Z,7220.00
2018-07-21T10:58:58.690Z,8308.00
2018-07-21T11:00:52.008Z,7832.00
2018-07-21T11:01:51.941Z,7736.00
2018-07-21T11:03:45.510Z,8652.00
2018-07-21T11:04:45.445Z,9360.00
2018-07-21T11:06:38.746Z,10216.00
2018-07-21T11:07:38.693Z,8640.00
2018-07-21T11:09:32.114Z,7992.00
2018-07-21T11:10:31.946Z,7784.00
2018-07-21T11:12:25.489Z,9340.00
2018-07-21T11:13:25.439Z,8996.00
2018-07-21T11:15:18.837Z,8712.00
2018-07-21T11:16:18.696Z,9336.00
2018-07-21T11:18:11.990Z,9376.00
2018-07-21T11:19:11.939Z,8568.00
2018-07-21T11:21:05.340Z,9712.00
2018-07-21T11:22:05.264Z,10260.00
2018-07-21T11:23:58.750Z,9992.00
2018-07-21T11:24:58.454Z,9904.00
2018-07-21T11:26:51.757Z,8748.00
2018-07-21T11:27:51.709Z,9684.00
2018-07-21T11:29:45.029Z,9440.00
2018-07-21T11:30:44.960Z,8908.00
2018-07-21T11:32:38.264Z,9240.00
2018-07-21T11:33:38.213Z,8868.00
2018-07-21T11:35:31.624Z,8332.00
2018-07-21T11:36:31.493Z,8460.00
2018-07-21T11:38:24.762Z,8076.00
2018-07-21T11:39:24.728Z,7952.00
2018-07-21T11:41:18.035Z,7488.00
2018-07-21T11:42:17.969Z,7544.00
2018-07-21T11:44:11.349Z,7436.00
2018-07-21T11:45:11.293Z,7380.00
2018-07-21T11:47:04.585Z,7200.00
2018-07-21T11:48:04.535Z,7128.00
2018-07-21T11:49:57.858Z,6936.00
2018-07-21T11:50:57.790Z,6480.00
2018-07-21T11:52:51.093Z,6816.00
2018-07-21T11:53:51.044Z,6800.00
2018-07-21T11:55:44.365Z,6832.00
2018-07-21T11:56:44.296Z,6828.00
2018-07-21T11:58:37.591Z,6744.00
2018-07-21T11:59:37.537Z,6724.00
2018-07-21T12:01:30.955Z,6696.00
2018-07-21T12:02:30.789Z,6736.00
2018-07-21T12:04:24.099Z,6632.00
2018-07-21T12:05:24.094Z,6764.00
2018-07-21T12:07:17.319Z,6800.00
2018-07-21T12:08:17.269Z,6692.00
2018-07-21T12:10:10.674Z,6760.00
2018-07-21T12:11:10.518Z,6584.00
2018-07-21T12:13:03.876Z,6680.00
2018-07-21T12:14:03.766Z,6728.00
2018-07-21T12:15:57.083Z,6724.00
2018-07-21T12:16:57.016Z,6676.00
2018-07-21T12:18:50.304Z,6600.00
2018-07-21T12:19:50.252Z,6572.00
2018-07-21T12:21:43.570Z,6524.00
2018-07-21T12:22:43.500Z,6460.00
2018-07-21T12:24:36.838Z,6468.00
2018-07-21T12:25:36.767Z,6472.00
2018-07-21T12:27:31.107Z,6432.00
2018-07-21T12:28:31.014Z,6400.00
2018-07-21T12:30:24.332Z,6324.00
2018-07-21T12:31:24.263Z,6240.00
2018-07-21T12:33:17.560Z,6224.00
2018-07-21T12:34:17.595Z,6216.00
2018-07-21T12:36:10.824Z,6236.00
2018-07-21T12:37:10.757Z,6236.00
2018-07-21T12:39:04.054Z,6172.00
2018-07-21T12:40:04.004Z,6084.00
2018-07-21T12:41:57.394Z,6080.00
2018-07-21T12:42:57.326Z,6224.00
2018-07-21T12:44:50.672Z,6288.00
2018-07-21T12:45:50.571Z,6324.00
2018-07-21T12:47:43.870Z,6420.00
2018-07-21T12:48:43.820Z,6528.00
2018-07-21T12:50:37.137Z,6536.00
2018-07-21T12:51:37.066Z,6480.00
2018-07-21T12:53:30.369Z,6528.00
2018-07-21T12:54:30.318Z,6716.00
2018-07-21T12:56:23.734Z,6328.00
2018-07-21T12:57:23.566Z,6472.00
2018-07-21T12:59:16.864Z,6528.00
2018-07-21T13:00:16.813Z,6296.00
2018-07-21T13:02:10.131Z,5848.00
2018-07-21T13:03:10.063Z,5700.00
2018-07-21T13:05:03.397Z,5628.00
2018-07-21T13:06:03.326Z,5572.00
2018-07-21T13:07:56.629Z,5784.00
2018-07-21T13:08:56.578Z,5656.00
2018-07-21T13:10:49.896Z,5920.00
2018-07-21T13:11:49.826Z,5892.00
2018-07-21T13:13:43.126Z,6160.00
2018-07-21T13:14:43.076Z,6352.00
2018-07-21T13:16:36.395Z,7064.00
2018-07-21T13:17:36.326Z,6880.00
2018-07-21T13:19:29.626Z,7064.00
2018-07-21T13:20:29.576Z,7016.00
2018-07-21T13:22:22.897Z,7396.00
2018-07-21T13:23:22.827Z,7728.00
2018-07-21T13:25:16.747Z,8984.00
2018-07-21T13:26:16.078Z,8180.00
2018-07-21T13:28:09.382Z,8516.00
2018-07-21T13:29:09.332Z,8164.00
2018-07-21T13:31:02.652Z,8856.00
2018-07-21T13:32:02.584Z,8824.00
2018-07-21T13:33:55.886Z,8988.00
2018-07-21T13:34:55.838Z,8456.00
2018-07-21T13:36:49.160Z,8504.00
2018-07-21T13:37:49.091Z,8100.00
2018-07-21T13:39:42.396Z,8216.00
2018-07-21T13:40:42.345Z,7932.00
2018-07-21T13:42:35.666Z,7900.00
2018-07-21T13:43:35.598Z,7828.00
2018-07-21T13:45:28.908Z,7812.00
2018-07-21T13:46:28.841Z,7760.00
2018-07-21T13:48:22.135Z,7756.00
2018-07-21T13:49:22.089Z,7756.00
2018-07-21T13:51:15.399Z,7488.00
2018-07-21T13:52:15.329Z,7520.00
2018-07-21T13:54:08.627Z,7208.00
2018-07-21T13:55:08.573Z,7048.00
2018-07-21T13:57:01.894Z,6748.00
2018-07-21T13:58:01.825Z,6544.00
2018-07-21T13:59:55.224Z,6216.00
2018-07-21T14:00:55.079Z,6112.00
2018-07-21T14:02:48.494Z,5884.00
2018-07-21T14:03:48.335Z,5804.00
2018-07-21T14:05:41.759Z,5732.00
2018-07-21T14:06:41.694Z,5732.00
2018-07-21T14:08:34.983Z,5764.00
2018-07-21T14:09:34.932Z,5724.00
2018-07-21T14:11:28.248Z,5584.00
2018-07-21T14:12:28.185Z,5540.00
2018-07-21T14:14:21.485Z,5468.00
2018-07-21T14:15:21.435Z,5432.00
2018-07-21T14:17:14.756Z,5256.00
2018-07-21T14:18:14.684Z,5120.00
2018-07-21T14:20:07.984Z,4840.00
2018-07-21T14:21:07.934Z,4664.00
2018-07-21T14:23:01.252Z,4356.00
2018-07-21T14:24:01.236Z,4192.00
2018-07-21T14:25:54.598Z,4012.00
2018-07-21T14:26:54.431Z,3876.00
2018-07-21T14:28:47.722Z,3720.00
2018-07-21T14:29:47.694Z,3696.00
2018-07-21T14:31:40.990Z,3836.00
2018-07-21T14:32:40.918Z,3956.00
2018-07-21T14:34:34.219Z,4268.00
2018-07-21T14:35:34.166Z,4480.00
2018-07-21T14:37:28.483Z,5188.00
2018-07-21T14:38:28.411Z,5172.00
2018-07-21T14:40:21.806Z,6336.00
2018-07-21T14:41:21.661Z,6088.00
2018-07-21T14:43:14.975Z,5500.00
2018-07-21T14:44:14.905Z,5204.00
2018-07-21T14:46:08.222Z,5120.00
2018-07-21T14:47:08.154Z,5080.00
2018-07-21T14:49:01.451Z,5240.00
2018-07-21T14:50:01.401Z,5236.00
2018-07-21T14:51:55.317Z,5220.00
2018-07-21T14:52:54.648Z,5160.00
2018-07-21T14:54:48.118Z,4948.00
2018-07-21T14:55:47.885Z,4860.00
2018-07-21T14:57:41.193Z,4768.00
2018-07-21T14:58:41.121Z,4752.00
2018-07-21T15:00:34.420Z,4684.00
2018-07-21T15:01:34.374Z,4616.00
2018-07-21T15:03:27.685Z,4356.00
2018-07-21T15:04:27.615Z,4156.00
2018-07-21T15:06:20.934Z,3844.00
2018-07-21T15:07:20.862Z,3680.00
2018-07-21T15:09:14.159Z,3452.00
2018-07-21T15:10:14.106Z,3320.00
2018-07-21T15:12:07.424Z,3092.00
2018-07-21T15:13:07.353Z,3008.00
2018-07-21T15:15:00.648Z,2912.00
2018-07-21T15:16:00.596Z,2940.00
2018-07-21T15:17:54.026Z,2968.00
2018-07-21T15:18:53.835Z,2924.00
2018-07-21T15:20:47.148Z,2752.00
2018-07-21T15:21:47.081Z,2664.00
2018-07-21T15:23:40.395Z,2568.00
2018-07-21T15:24:40.325Z,2488.00
2018-07-21T15:26:33.644Z,2308.00
2018-07-21T15:27:33.568Z,2188.00
2018-07-21T15:29:26.889Z,1956.00
2018-07-21T15:30:26.814Z,1844.00
2018-07-21T15:32:20.131Z,1652.00
2018-07-21T15:33:20.057Z,1572.00
2018-07-21T15:35:13.381Z,1464.00
2018-07-21T15:36:13.327Z,1424.00
2018-07-21T15:38:06.633Z,1356.00
2018-07-21T15:39:06.563Z,1308.00
2018-07-21T15:40:59.857Z,1208.00
2018-07-21T15:41:59.804Z,1156.00
2018-07-21T15:43:53.122Z,1072.00
2018-07-21T15:44:53.046Z,1052.00
2018-07-21T15:46:46.358Z,1012.00
2018-07-21T15:47:46.309Z,992.00
2018-07-21T15:49:39.577Z,968.00
2018-07-21T15:50:39.519Z,956.00
2018-07-21T15:52:32.835Z,956.00
2018-07-21T15:53:32.756Z,944.00
2018-07-21T15:55:26.041Z,896.00
2018-07-21T15:56:25.984Z,888.00
2018-07-21T15:58:19.400Z,876.00
2018-07-21T15:59:19.321Z,868.00
2018-07-21T16:01:12.608Z,864.00
2018-07-21T16:02:12.580Z,864.00
2018-07-21T16:04:05.852Z,876.00
2018-07-21T16:05:05.775Z,896.00
2018-07-21T16:06:59.079Z,956.00
2018-07-21T16:07:59.002Z,984.00
2018-07-21T16:09:52.286Z,1048.00
2018-07-21T16:10:52.229Z,1104.00
2018-07-21T16:12:45.531Z,1192.00
2018-07-21T16:13:45.455Z,1228.00
2018-07-21T16:15:38.739Z,1256.00
2018-07-21T16:16:38.683Z,1272.00
2018-07-21T16:18:31.984Z,1240.00
2018-07-21T16:19:31.912Z,1260.00
2018-07-21T16:21:25.194Z,1288.00
2018-07-21T16:22:25.197Z,1380.00
2018-07-21T16:24:19.441Z,1520.00
2018-07-21T16:25:19.360Z,1600.00
2018-07-21T16:27:12.662Z,1756.00
2018-07-21T16:28:12.586Z,1772.00
2018-07-21T16:30:05.870Z,1816.00
2018-07-21T16:31:05.809Z,1860.00
2018-07-21T16:32:59.111Z,1936.00
2018-07-21T16:33:59.034Z,1980.00
2018-07-21T16:35:52.316Z,2128.00
2018-07-21T16:36:52.256Z,2204.00
2018-07-21T16:38:45.552Z,2320.00
2018-07-21T16:39:45.474Z,2436.00
2018-07-21T16:41:38.757Z,2572.00
2018-07-21T16:42:38.697Z,2612.00
2018-07-21T16:44:31.999Z,2660.00
2018-07-21T16:45:31.924Z,2732.00
2018-07-21T16:47:25.225Z,2684.00
2018-07-21T16:48:25.148Z,2572.00
2018-07-21T16:50:18.433Z,2564.00
2018-07-21T16:51:18.375Z,2608.00
2018-07-21T16:53:11.676Z,2908.00
2018-07-21T16:54:11.605Z,2904.00
2018-07-21T16:56:04.883Z,2912.00
2018-07-21T16:57:04.828Z,2932.00
2018-07-21T16:58:58.128Z,2936.00
2018-07-21T16:59:58.066Z,2892.00
2018-07-21T17:01:51.381Z,2796.00
2018-07-21T17:02:51.320Z,2752.00
2018-07-21T17:04:44.623Z,2716.00
2018-07-21T17:05:44.548Z,2672.00
2018-07-21T17:07:37.850Z,2632.00
2018-07-21T17:08:37.774Z,2584.00
2018-07-21T17:10:31.061Z,2500.00
2018-07-21T17:11:30.999Z,2436.00
2018-07-21T17:13:24.324Z,2328.00
2018-07-21T17:14:24.260Z,2276.00
2018-07-21T17:16:17.511Z,2216.00
2018-07-21T17:17:17.466Z,2164.00
2018-07-21T17:19:10.847Z,2088.00
2018-07-21T17:20:10.678Z,2064.00
2018-07-21T17:22:03.966Z,2036.00
2018-07-21T17:23:03.904Z,2028.00
2018-07-21T17:24:57.209Z,1992.00
2018-07-21T17:25:57.138Z,1972.00
2018-07-21T17:27:50.435Z,1912.00
2018-07-21T17:28:50.357Z,1872.00
2018-07-21T17:30:43.646Z,1768.00
2018-07-21T17:31:43.587Z,1688.00
2018-07-21T17:33:36.888Z,1564.00
2018-07-21T17:34:36.809Z,1524.00
2018-07-21T17:36:30.095Z,1516.00
2018-07-21T17:37:30.038Z,1540.00
2018-07-21T17:39:23.411Z,1572.00
2018-07-21T17:40:23.319Z,1596.00
2018-07-21T17:42:16.603Z,1616.00
2018-07-21T17:43:16.547Z,1608.00
2018-07-21T17:45:09.852Z,1556.00
2018-07-21T17:46:09.774Z,1532.00
2018-07-21T17:48:03.070Z,1508.00
2018-07-21T17:49:02.995Z,1492.00
2018-07-21T17:50:56.279Z,1436.00
2018-07-21T17:51:56.221Z,1400.00